Time;durP1;ratioP1;P1;durP2;ratioP2;P2;SDS_P1;SDS_P2;PMS_P1;PMS_P2;Temp;Humidity;BMP_temperature;BMP_pressure;BME280_temperature;BME280_humidity;BME280_pressure;Samples;Min_cycle;Max_cycle;Signal;HPM_P1;HPM_P2
2022/03/24 00:01:57;;;;;;;8.38;2.00;;;19.20;99.90;;;;;;5016263;28;20198;-87
2022/03/24 00:04:28;;;;;;;13.63;2.42;;;19.10;99.90;;;;;;5021360;28;20186;-88
2022/03/24 00:06:58;;;;;;;6.72;1.83;;;19.10;99.90;;;;;;5018467;28;20195;-87
2022/03/24 00:09:31;;;;;;;7.32;1.88;;;19.10;99.90;;;;;;5015908;28;20217;-87
2022/03/24 00:12:02;;;;;;;8.65;1.80;;;19.10;99.90;;;;;;5024162;28;20191;-87
2022/03/24 00:14:32;;;;;;;5.15;1.80;;;19.20;99.90;;;;;;5015604;28;20603;-87
2022/03/24 00:17:03;;;;;;;5.43;1.70;;;19.20;99.90;;;;;;5015376;28;20537;-87
2022/03/24 00:19:35;;;;;;;7.20;1.90;;;19.20;99.90;;;;;;5016263;28;20191;-87
2022/03/24 00:22:06;;;;;;;10.35;2.08;;;19.20;99.90;;;;;;5015440;28;20249;-86
2022/03/24 00:25:02;;;;;;;9.55;2.08;;;19.20;99.90;;;;;;5015291;28;20187;-87
2022/03/24 00:27:32;;;;;;;6.55;1.90;;;19.20;99.90;;;;;;5013763;28;20211;-87
2022/03/24 00:30:03;;;;;;;6.57;1.90;;;19.20;99.90;;;;;;5014721;28;20589;-85
2022/03/24 00:32:33;;;;;;;8.18;1.98;;;19.20;99.90;;;;;;5013885;28;20257;-86
2022/03/24 00:35:04;;;;;;;5.57;2.10;;;19.20;99.90;;;;;;5012776;28;20200;-76
2022/03/24 00:37:35;;;;;;;7.40;1.90;;;19.20;99.90;;;;;;5013810;28;20603;-87
2022/03/24 00:40:08;;;;;;;6.30;1.85;;;19.30;99.90;;;;;;5013286;28;20199;-86
2022/03/24 00:42:40;;;;;;;6.97;1.73;;;19.20;99.90;;;;;;5015204;28;20286;-87
2022/03/24 00:45:12;;;;;;;8.13;2.00;;;19.30;99.90;;;;;;5022295;28;20215;-86
2022/03/24 00:47:43;;;;;;;6.07;1.92;;;19.30;99.90;;;;;;5017415;28;20321;-83
2022/03/24 00:50:15;;;;;;;5.35;1.83;;;19.30;99.90;;;;;;5019277;28;20199;-87
2022/03/24 00:52:46;;;;;;;8.43;1.92;;;19.40;99.90;;;;;;5020221;28;20191;-87
2022/03/24 00:55:19;;;;;;;7.45;2.17;;;19.40;99.90;;;;;;5017547;28;20198;-83
2022/03/24 00:57:52;;;;;;;9.02;2.38;;;19.40;99.90;;;;;;5013204;28;20199;-85
2022/03/24 01:00:25;;;;;;;9.65;2.20;;;19.40;99.90;;;;;;5013707;28;20191;-87
2022/03/24 01:02:57;;;;;;;7.45;2.05;;;19.40;99.90;;;;;;5018018;28;20244;-87
2022/03/24 01:05:29;;;;;;;5.00;1.90;;;19.40;99.90;;;;;;5023530;28;20191;-78
2022/03/24 01:08:00;;;;;;;10.90;2.38;;;19.40;99.90;;;;;;5019328;28;20206;-89
2022/03/24 01:10:32;;;;;;;8.15;1.95;;;19.40;99.90;;;;;;5010456;28;20191;-85
2022/03/24 01:13:03;;;;;;;7.57;2.20;;;19.40;99.90;;;;;;5015709;28;20249;-90
2022/03/24 01:15:34;;;;;;;7.75;2.33;;;19.40;99.90;;;;;;5016583;28;20229;-83
2022/03/24 01:18:06;;;;;;;8.57;2.40;;;19.40;99.90;;;;;;5018341;28;20249;-92
2022/03/24 01:20:36;;;;;;;8.23;2.20;;;19.40;99.90;;;;;;5010116;28;20198;-93
2022/03/24 01:23:07;;;;;;;6.65;1.90;;;19.50;99.90;;;;;;5025812;28;20198;-91
2022/03/24 01:25:40;;;;;;;8.52;1.95;;;19.50;99.90;;;;;;5015675;28;20187;-94
2022/03/24 01:28:11;;;;;;;8.40;2.15;;;19.50;99.90;;;;;;5017919;28;20306;-91
2022/03/24 01:30:42;;;;;;;9.10;2.20;;;19.50;99.90;;;;;;5012105;28;20246;-91
2022/03/24 01:33:13;;;;;;;7.30;2.20;;;19.50;99.90;;;;;;5022660;28;20605;-92
2022/03/24 01:35:44;;;;;;;9.18;2.20;;;19.50;99.90;;;;;;5021619;28;20206;-90
2022/03/24 01:38:16;;;;;;;6.70;2.15;;;19.60;99.90;;;;;;5018204;28;20191;-91
2022/03/24 01:40:49;;;;;;;10.75;2.45;;;19.60;99.90;;;;;;5024241;28;20191;-92
2022/03/24 01:43:19;;;;;;;10.93;2.50;;;19.60;99.90;;;;;;5018562;28;20190;-90
2022/03/24 01:45:50;;;;;;;10.27;3.17;;;19.60;99.90;;;;;;5013826;28;20302;-93
2022/03/24 01:48:22;;;;;;;13.18;3.67;;;19.50;99.90;;;;;;5019685;28;20242;-92
2022/03/24 01:50:52;;;;;;;16.13;4.05;;;19.50;99.90;;;;;;5008837;28;20199;-88
2022/03/24 01:53:23;;;;;;;11.93;3.30;;;19.50;99.90;;;;;;5020580;28;20186;-90
2022/03/24 01:55:56;;;;;;;8.23;2.65;;;19.50;99.90;;;;;;5014513;28;20199;-92
2022/03/24 01:58:27;;;;;;;9.48;2.58;;;19.50;99.90;;;;;;5014430;28;20705;-92
2022/03/24 02:01:29;;;;;;;8.70;2.50;;;19.50;99.90;;;;;;5032458;28;20947;-92
2022/03/24 02:04:04;;;;;;;8.90;2.92;;;19.50;99.90;;;;;;5032086;28;20201;-93
2022/03/24 02:06:35;;;;;;;7.90;2.40;;;19.50;99.90;;;;;;5020545;28;20270;-91
2022/03/24 02:09:07;;;;;;;8.15;2.60;;;19.50;99.90;;;;;;5012804;28;20225;-89
2022/03/24 02:11:39;;;;;;;9.25;2.30;;;19.50;99.90;;;;;;5019234;28;20653;-94
2022/03/24 02:14:11;;;;;;;8.98;2.50;;;19.50;99.90;;;;;;5019013;28;20696;-92
2022/03/24 02:16:44;;;;;;;7.57;2.20;;;19.50;99.90;;;;;;5021821;28;20198;-87
2022/03/24 02:19:17;;;;;;;8.48;2.58;;;19.60;99.90;;;;;;5018816;28;20274;-92
2022/03/24 02:21:48;;;;;;;11.25;2.83;;;19.60;99.90;;;;;;5014493;28;20186;-93
2022/03/24 02:24:23;;;;;;;10.70;2.92;;;19.60;99.90;;;;;;5015060;28;20693;-94
2022/03/24 02:26:54;;;;;;;8.52;2.33;;;19.60;99.90;;;;;;5016907;28;20379;-88
2022/03/24 02:29:26;;;;;;;7.72;2.55;;;19.70;99.90;;;;;;5015909;28;20215;-92
2022/03/24 02:31:58;;;;;;;9.63;2.55;;;19.70;99.90;;;;;;5022525;28;20225;-88
2022/03/24 02:34:47;;;;;;;13.57;3.05;;;19.70;99.90;;;;;;5016948;28;20195;-92
2022/03/24 02:37:19;;;;;;;7.40;2.20;;;19.70;99.90;;;;;;4994851;28;20192;-89
2022/03/24 02:39:53;;;;;;;13.77;3.15;;;19.70;99.90;;;;;;5013063;28;20709;-92
2022/03/24 02:42:25;;;;;;;12.23;4.10;;;19.70;99.90;;;;;;5021451;28;20252;-88
2022/03/24 02:44:58;;;;;;;7.32;3.20;;;19.70;99.90;;;;;;5014114;28;20219;-93
2022/03/24 02:47:29;;;;;;;8.40;2.80;;;19.60;99.90;;;;;;5014077;28;20234;-93
2022/03/24 02:50:01;;;;;;;9.32;2.72;;;19.60;99.90;;;;;;5014286;28;20219;-94
2022/03/24 02:52:32;;;;;;;7.95;2.72;;;19.60;99.90;;;;;;5021403;28;20274;-94
2022/03/24 02:55:05;;;;;;;8.68;2.13;;;19.50;99.90;;;;;;5021388;28;20662;-94
2022/03/24 02:57:35;;;;;;;8.10;2.03;;;19.50;99.90;;;;;;5014117;28;20183;-93
2022/03/24 03:00:07;;;;;;;10.13;2.63;;;19.40;99.90;;;;;;5013786;28;20209;-93
2022/03/24 03:02:39;;;;;;;10.15;2.75;;;19.40;99.90;;;;;;5028809;28;20187;-94
2022/03/24 03:05:10;;;;;;;9.68;3.03;;;19.50;99.90;;;;;;5014214;28;20259;-89
2022/03/24 03:07:42;;;;;;;7.20;2.72;;;19.40;99.90;;;;;;5015250;28;20187;-92
2022/03/24 03:10:15;;;;;;;7.93;2.47;;;19.50;99.90;;;;;;5007706;28;20254;-93
2022/03/24 03:12:46;;;;;;;7.72;2.40;;;19.50;99.90;;;;;;5009056;28;20635;-92
2022/03/24 03:15:17;;;;;;;10.05;2.72;;;19.50;99.90;;;;;;5010928;28;20282;-91
2022/03/24 03:17:47;;;;;;;8.20;3.00;;;19.50;99.90;;;;;;5014340;28;20187;-86
2022/03/24 03:20:18;;;;;;;9.10;2.83;;;19.50;99.90;;;;;;5016536;28;20250;-79
2022/03/24 03:22:50;;;;;;;8.88;2.90;;;19.50;99.90;;;;;;5012885;28;20222;-85
2022/03/24 03:25:22;;;;;;;5.85;2.72;;;19.50;99.90;;;;;;5013392;28;20673;-86
2022/03/24 03:27:53;;;;;;;10.00;2.80;;;19.40;99.90;;;;;;5013161;28;20195;-83
2022/03/24 03:30:24;;;;;;;7.38;2.20;;;19.50;99.90;;;;;;5020302;28;20222;-84
2022/03/24 03:32:54;;;;;;;6.65;2.28;;;19.50;99.90;;;;;;5018684;28;20195;-87
2022/03/24 03:35:25;;;;;;;6.38;2.35;;;19.60;99.90;;;;;;5017407;28;20188;-91
2022/03/24 03:37:56;;;;;;;7.47;2.75;;;19.60;99.90;;;;;;5022053;28;20685;-92
2022/03/24 03:40:28;;;;;;;7.20;1.88;;;19.70;99.90;;;;;;5020385;28;20710;-89
2022/03/24 03:42:59;;;;;;;6.40;2.20;;;19.70;99.90;;;;;;5017792;28;20191;-88
2022/03/24 03:45:30;;;;;;;7.00;2.20;;;19.70;99.90;;;;;;5017277;28;20596;-93
2022/03/24 03:48:00;;;;;;;6.80;1.90;;;19.70;99.90;;;;;;5013049;28;20226;-93
2022/03/24 03:50:31;;;;;;;6.72;1.98;;;19.80;99.90;;;;;;5021425;28;20211;-92
2022/03/24 03:53:02;;;;;;;4.50;2.08;;;19.90;99.90;;;;;;5017594;28;20187;-94
2022/03/24 03:55:34;;;;;;;4.82;1.65;;;19.90;99.90;;;;;;5024587;28;20270;-93
2022/03/24 03:58:05;;;;;;;9.27;2.25;;;19.90;99.90;;;;;;5012949;28;20198;-94
2022/03/24 04:00:55;;;;;;;7.97;2.40;;;19.80;99.90;;;;;;5021340;28;20265;-91
2022/03/24 04:03:27;;;;;;;9.40;2.30;;;20.00;99.90;;;;;;5019148;28;20261;-92
2022/03/24 04:06:00;;;;;;;10.48;2.42;;;20.00;99.90;;;;;;5018230;28;20187;-93
2022/03/24 04:08:31;;;;;;;7.95;2.10;;;20.10;99.90;;;;;;5018848;28;20183;-91
2022/03/24 04:11:04;;;;;;;7.97;2.08;;;20.00;99.90;;;;;;5017449;28;20187;-93
2022/03/24 04:13:34;;;;;;;5.68;2.00;;;20.00;99.90;;;;;;5021681;28;20195;-91
2022/03/24 04:16:06;;;;;;;4.68;1.70;;;20.00;99.90;;;;;;5011490;28;20194;-93
2022/03/24 04:18:38;;;;;;;8.65;2.00;;;20.00;99.90;;;;;;5016817;28;20649;-91
2022/03/24 04:21:10;;;;;;;8.57;2.50;;;20.00;99.90;;;;;;5016652;28;20187;-90
2022/03/24 04:23:41;;;;;;;7.20;2.67;;;20.00;99.90;;;;;;5016403;28;20195;-92
2022/03/24 04:26:14;;;;;;;7.78;2.20;;;20.00;99.90;;;;;;5016141;28;20650;-92
2022/03/24 04:28:45;;;;;;;9.50;2.40;;;19.90;99.90;;;;;;5016695;28;20225;-88
2022/03/24 04:31:16;;;;;;;9.02;2.13;;;20.10;99.90;;;;;;5018117;28;20194;-92
2022/03/24 04:33:47;;;;;;;9.50;2.50;;;20.10;99.90;;;;;;5016068;28;20264;-91
2022/03/24 04:36:17;;;;;;;8.25;2.45;;;20.10;99.90;;;;;;5014565;28;20191;-92
2022/03/24 04:38:48;;;;;;;6.55;2.40;;;20.20;99.90;;;;;;5014380;28;20238;-92
2022/03/24 04:41:21;;;;;;;8.63;1.90;;;20.20;99.90;;;;;;5016866;28;20188;-91
2022/03/24 04:43:51;;;;;;;6.45;1.70;;;20.20;99.90;;;;;;5015209;28;20191;-91
2022/03/24 04:46:24;;;;;;;6.40;1.80;;;20.10;99.90;;;;;;5016700;28;20225;-89
2022/03/24 04:48:55;;;;;;;6.63;1.67;;;20.10;99.90;;;;;;5015320;28;20322;-90
2022/03/24 04:51:26;;;;;;;6.55;1.90;;;20.10;99.90;;;;;;5015660;28;20187;-90
2022/03/24 04:53:56;;;;;;;6.25;1.52;;;20.00;99.90;;;;;;5020177;28;20183;-89
2022/03/24 04:56:29;;;;;;;5.60;1.77;;;20.00;99.90;;;;;;5015236;28;20194;-91
2022/03/24 04:59:00;;;;;;;7.00;1.73;;;20.10;99.90;;;;;;5016136;28;20241;-90
2022/03/24 05:01:31;;;;;;;6.93;1.67;;;20.10;99.90;;;;;;5015459;28;20191;-90
2022/03/24 05:04:02;;;;;;;9.75;2.28;;;20.10;99.90;;;;;;5026634;28;20187;-89
2022/03/24 05:06:33;;;;;;;6.68;1.88;;;20.10;99.90;;;;;;5028590;28;20245;-83
2022/03/24 05:09:04;;;;;;;7.72;1.92;;;20.20;99.90;;;;;;5032065;28;20230;-89
2022/03/24 05:11:36;;;;;;;9.63;1.90;;;20.30;99.90;;;;;;5034299;28;20199;-79
2022/03/24 05:14:08;;;;;;;8.73;2.55;;;20.30;99.90;;;;;;5026114;28;20686;-88
2022/03/24 05:16:38;;;;;;;7.22;1.90;;;20.40;99.90;;;;;;5014417;28;20285;-88
2022/03/24 05:19:09;;;;;;;6.50;2.10;;;20.50;99.90;;;;;;5014265;28;20237;-88
2022/03/24 05:21:40;;;;;;;5.38;1.90;;;20.60;99.90;;;;;;5016486;28;20524;-87
2022/03/24 05:24:10;;;;;;;6.03;1.80;;;20.70;99.90;;;;;;5015238;28;20706;-87
2022/03/24 05:26:45;;;;;;;7.90;2.00;;;20.80;99.90;;;;;;5015609;28;20183;-87
2022/03/24 05:29:15;;;;;;;7.32;1.83;;;20.80;99.90;;;;;;5011537;28;20222;-85
2022/03/24 05:31:46;;;;;;;6.03;1.80;;;20.80;99.90;;;;;;5016429;28;20592;-86
2022/03/24 05:34:17;;;;;;;7.68;1.85;;;20.70;99.90;;;;;;5013159;28;20191;-85
2022/03/24 05:36:48;;;;;;;4.88;1.50;;;20.70;99.90;;;;;;5013547;28;20197;-87
2022/03/24 05:39:18;;;;;;;8.85;1.92;;;20.60;99.90;;;;;;5023162;28;20229;-86
2022/03/24 05:41:51;;;;;;;9.93;2.40;;;20.60;99.90;;;;;;5016050;28;20195;-86
2022/03/24 05:44:22;;;;;;;8.02;1.80;;;20.60;99.90;;;;;;5014115;28;20195;-87
2022/03/24 05:46:52;;;;;;;6.72;1.52;;;20.50;99.90;;;;;;5014156;28;20202;-84
2022/03/24 05:49:27;;;;;;;6.18;1.70;;;20.50;99.90;;;;;;5013666;28;20218;-86
2022/03/24 05:51:57;;;;;;;7.85;1.70;;;20.50;99.90;;;;;;5012092;28;20191;-86
2022/03/24 05:54:28;;;;;;;4.63;1.70;;;20.50;99.90;;;;;;5013720;28;20199;-84
2022/03/24 05:57:00;;;;;;;8.13;2.13;;;20.50;99.90;;;;;;5015382;28;20241;-83
2022/03/24 05:59:31;;;;;;;8.98;1.80;;;20.50;99.90;;;;;;5014178;28;20195;-85
2022/03/24 06:02:02;;;;;;;6.97;2.13;;;20.50;99.90;;;;;;5013153;28;20198;-85
2022/03/24 06:04:33;;;;;;;11.65;2.28;;;20.40;99.90;;;;;;5013458;28;20237;-85
2022/03/24 06:07:04;;;;;;;6.82;1.92;;;20.40;99.90;;;;;;5012568;28;20275;-85
2022/03/24 06:09:35;;;;;;;7.55;1.75;;;20.40;99.90;;;;;;5012900;28;20225;-83
2022/03/24 06:12:10;;;;;;;9.80;2.30;;;20.40;99.90;;;;;;5015829;28;20269;-85
2022/03/24 06:14:41;;;;;;;6.75;1.85;;;20.40;99.90;;;;;;5016478;28;20199;-85
2022/03/24 06:17:12;;;;;;;7.35;1.80;;;20.30;99.90;;;;;;5012474;28;20274;-84
2022/03/24 06:19:44;;;;;;;8.10;2.00;;;20.30;99.90;;;;;;5016723;28;20554;-85
2022/03/24 06:22:15;;;;;;;6.25;1.70;;;20.30;99.90;;;;;;5019112;28;20639;-84
2022/03/24 06:24:46;;;;;;;7.22;1.55;;;20.20;99.90;;;;;;5018522;28;20191;-82
2022/03/24 06:27:19;;;;;;;8.40;1.75;;;20.20;99.90;;;;;;5018108;28;20187;-84
2022/03/24 06:29:49;;;;;;;5.57;1.52;;;20.20;99.90;;;;;;5017570;28;20294;-84
2022/03/24 06:32:20;;;;;;;6.13;1.67;;;20.20;99.90;;;;;;5015047;28;20190;-84
2022/03/24 06:34:52;;;;;;;6.70;1.45;;;20.20;99.90;;;;;;5016046;28;20194;-83
2022/03/24 06:37:22;;;;;;;8.13;1.83;;;20.20;99.90;;;;;;5019477;28;20234;-83
2022/03/24 06:39:53;;;;;;;5.72;1.55;;;20.20;99.90;;;;;;5014470;28;20207;-83
2022/03/24 06:42:25;;;;;;;8.85;1.90;;;20.20;99.90;;;;;;5012353;28;20630;-83
2022/03/24 06:44:56;;;;;;;7.22;1.63;;;20.20;99.90;;;;;;5014684;28;20649;-81
2022/03/24 06:47:26;;;;;;;6.70;1.60;;;20.20;99.90;;;;;;5018333;28;20230;-85
2022/03/24 06:49:57;;;;;;;6.95;1.65;;;20.20;99.90;;;;;;5012743;28;20222;-82
2022/03/24 06:52:28;;;;;;;5.25;1.65;;;20.20;99.90;;;;;;5014049;28;20194;-82
2022/03/24 06:54:58;;;;;;;6.15;1.90;;;20.30;99.90;;;;;;5018354;28;20639;-82
2022/03/24 06:57:31;;;;;;;11.45;2.40;;;20.30;99.90;;;;;;5013421;28;20654;-84
2022/03/24 07:00:02;;;;;;;6.95;1.90;;;20.30;99.90;;;;;;5012673;28;20600;-83
2022/03/24 07:02:33;;;;;;;7.45;1.80;;;20.30;99.90;;;;;;5015006;28;20191;-82
2022/03/24 07:05:03;;;;;;;7.47;1.80;;;20.30;99.90;;;;;;5019605;28;20620;-81
2022/03/24 07:07:34;;;;;;;10.43;1.95;;;20.30;99.90;;;;;;5020247;28;20240;-79
2022/03/24 07:10:05;;;;;;;5.85;2.15;;;20.30;99.90;;;;;;5026362;28;20209;-83
2022/03/24 07:12:37;;;;;;;9.32;1.75;;;20.20;99.90;;;;;;5021113;28;20183;-83
2022/03/24 07:15:11;;;;;;;6.25;1.80;;;20.30;99.90;;;;;;5019545;28;20253;-83
2022/03/24 07:17:42;;;;;;;9.70;2.50;;;20.30;99.90;;;;;;5018872;28;20237;-83
2022/03/24 07:20:13;;;;;;;8.52;1.95;;;20.30;99.90;;;;;;5022508;28;20186;-82
2022/03/24 07:22:44;;;;;;;5.35;2.10;;;20.30;99.90;;;;;;5027212;28;20190;-83
2022/03/24 07:25:15;;;;;;;6.75;2.10;;;20.20;99.90;;;;;;5023225;28;20191;-83
2022/03/24 07:27:49;;;;;;;6.10;1.65;;;20.20;99.90;;;;;;5016055;28;20195;-83
2022/03/24 07:30:19;;;;;;;7.30;2.00;;;20.20;99.90;;;;;;5016093;28;20206;-83
2022/03/24 07:32:50;;;;;;;11.32;1.90;;;20.30;99.90;;;;;;5025587;28;20193;-83
2022/03/24 07:35:24;;;;;;;8.57;1.95;;;20.20;99.90;;;;;;5021420;28;20548;-84
2022/03/24 07:37:54;;;;;;;9.80;1.77;;;20.20;99.90;;;;;;5019863;28;20242;-83
2022/03/24 07:40:25;;;;;;;9.07;2.30;;;20.30;99.90;;;;;;5017022;28;20201;-84
2022/03/24 07:42:59;;;;;;;6.75;1.88;;;20.20;99.90;;;;;;5019240;28;20635;-81
2022/03/24 07:45:30;;;;;;;12.50;2.10;;;20.20;99.90;;;;;;5015583;28;20302;-83
2022/03/24 07:48:12;;;;;;;6.72;2.28;;;20.10;99.90;;;;;;5015133;28;20234;-84
2022/03/24 07:50:44;;;;;;;9.85;2.40;;;20.10;99.90;;;;;;5014761;28;20219;-89
2022/03/24 07:53:41;;;;;;;5.93;1.25;;;20.10;99.90;;;;;;5015536;28;20253;-86
2022/03/24 07:56:12;;;;;;;5.90;1.50;;;20.00;99.90;;;;;;5011108;28;20565;-86
2022/03/24 07:58:45;;;;;;;2.55;1.17;;;19.90;99.90;;;;;;5014678;28;20655;-84
2022/03/24 08:01:16;;;;;;;3.72;1.42;;;19.80;99.90;;;;;;5021770;28;20275;-80
2022/03/24 08:03:47;;;;;;;4.65;1.70;;;19.70;99.90;;;;;;5029396;28;20194;-85
2022/03/24 08:06:19;;;;;;;7.45;1.60;;;19.60;99.90;;;;;;5014156;28;20222;-86
2022/03/24 08:08:50;;;;;;;5.15;1.60;;;19.50;99.90;;;;;;5024263;28;20642;-86
2022/03/24 08:11:22;;;;;;;7.32;1.70;;;19.40;99.90;;;;;;5019880;28;20256;-84
2022/03/24 08:13:55;;;;;;;8.40;3.53;;;19.40;99.90;;;;;;5023155;28;20183;-87
2022/03/24 08:16:26;;;;;;;10.27;4.82;;;19.40;99.90;;;;;;5024390;28;20197;-86
2022/03/24 08:18:57;;;;;;;9.07;4.18;;;19.40;99.90;;;;;;5014036;28;20203;-85
2022/03/24 08:21:28;;;;;;;8.23;2.20;;;19.30;99.90;;;;;;5013676;28;20206;-89
2022/03/24 08:23:58;;;;;;;8.05;2.35;;;19.30;99.90;;;;;;5015498;28;20194;-85
2022/03/24 08:26:29;;;;;;;6.82;1.92;;;19.30;99.90;;;;;;5015841;28;20194;-87
2022/03/24 08:29:02;;;;;;;5.13;2.30;;;19.30;99.90;;;;;;5014749;28;20187;-84
2022/03/24 08:31:33;;;;;;;7.65;2.50;;;19.30;99.90;;;;;;5010481;28;20219;-81
2022/03/24 08:34:03;;;;;;;6.90;2.47;;;19.30;99.90;;;;;;5014112;28;20647;-85
2022/03/24 08:36:34;;;;;;;7.43;2.00;;;19.30;99.90;;;;;;5014823;28;20195;-71
2022/03/24 08:39:04;;;;;;;4.45;1.83;;;19.30;99.90;;;;;;5014323;28;20198;-91
2022/03/24 08:41:35;;;;;;;6.57;1.70;;;19.20;99.90;;;;;;5008280;28;20631;-73
2022/03/24 08:44:10;;;;;;;5.40;1.52;;;19.10;99.90;;;;;;5015353;28;20203;-89
2022/03/24 08:46:40;;;;;;;7.28;1.95;;;19.00;99.90;;;;;;5013593;28;20214;-73
2022/03/24 08:49:11;;;;;;;6.70;1.83;;;18.90;99.90;;;;;;5016995;28;20234;-74
2022/03/24 08:51:42;;;;;;;6.00;1.80;;;18.90;99.90;;;;;;5015459;28;20225;-80
2022/03/24 08:54:13;;;;;;;7.30;1.70;;;18.80;99.90;;;;;;5014983;28;20184;-85
2022/03/24 08:56:43;;;;;;;9.45;2.70;;;18.70;99.90;;;;;;5012457;28;20191;-83
2022/03/24 08:59:16;;;;;;;6.90;2.20;;;18.80;99.90;;;;;;5015015;28;20218;-84
2022/03/24 09:01:47;;;;;;;5.68;1.90;;;18.70;99.90;;;;;;5012900;28;20199;-76
2022/03/24 09:04:20;;;;;;;7.97;2.13;;;18.70;99.90;;;;;;5016523;28;20226;-89
2022/03/24 09:06:50;;;;;;;8.50;1.98;;;18.70;99.90;;;;;;5012327;28;20187;-74
2022/03/24 09:09:22;;;;;;;7.72;2.55;;;18.60;99.90;;;;;;5017584;28;20287;-86
2022/03/24 09:11:53;;;;;;;6.43;2.30;;;18.50;99.90;;;;;;5007154;28;20273;-80
2022/03/24 09:14:25;;;;;;;10.35;2.22;;;18.50;99.90;;;;;;5019485;28;20207;-84
2022/03/24 09:16:56;;;;;;;5.15;2.00;;;18.40;99.90;;;;;;5007560;28;20684;-89
2022/03/24 09:19:26;;;;;;;8.13;2.58;;;18.40;99.90;;;;;;5015053;28;20187;-87
2022/03/24 09:21:57;;;;;;;9.23;2.47;;;18.30;99.90;;;;;;5013698;28;20195;-91
2022/03/24 09:24:28;;;;;;;6.50;2.50;;;18.30;99.90;;;;;;5015111;28;20197;-91
2022/03/24 09:26:59;;;;;;;8.63;2.70;;;18.30;99.90;;;;;;5012204;28;20195;-91
2022/03/24 09:29:31;;;;;;;5.50;2.03;;;18.30;99.90;;;;;;5011509;28;20191;-89
2022/03/24 09:32:02;;;;;;;7.28;3.28;;;18.30;99.90;;;;;;5007917;28;20214;-89
2022/03/24 09:34:33;;;;;;;8.52;3.22;;;18.30;99.90;;;;;;5015282;28;20206;-90
2022/03/24 09:37:03;;;;;;;6.78;2.45;;;18.30;99.90;;;;;;5015104;28;20194;-91
2022/03/24 09:39:34;;;;;;;4.03;2.05;;;18.30;99.90;;;;;;5014611;28;20191;-88
2022/03/24 09:42:05;;;;;;;14.48;2.40;;;18.30;99.90;;;;;;5007334;28;20669;-85
2022/03/24 09:44:38;;;;;;;5.78;2.00;;;18.30;99.90;;;;;;5014925;28;20223;-85
2022/03/24 09:47:11;;;;;;;5.38;2.00;;;18.30;99.90;;;;;;5014533;28;20227;-90
2022/03/24 09:49:42;;;;;;;5.10;1.70;;;18.30;99.90;;;;;;5014426;28;20199;-90
2022/03/24 09:52:14;;;;;;;5.05;1.65;;;18.30;99.90;;;;;;5011240;28;20219;-84
2022/03/24 09:54:45;;;;;;;6.60;1.92;;;18.30;99.90;;;;;;5014365;28;20282;-86
2022/03/24 09:57:16;;;;;;;5.18;1.98;;;18.30;99.90;;;;;;5013804;28;20290;-79
2022/03/24 09:59:49;;;;;;;6.10;1.92;;;18.40;99.90;;;;;;5013302;28;20191;-85
2022/03/24 10:02:21;;;;;;;6.18;1.98;;;18.40;99.90;;;;;;5013161;28;20194;-85
2022/03/24 10:04:52;;;;;;;4.82;1.95;;;18.40;99.90;;;;;;5018548;28;20193;-83
2022/03/24 10:07:25;;;;;;;4.97;1.77;;;18.40;99.90;;;;;;5012268;28;20558;-86
2022/03/24 10:09:58;;;;;;;5.95;1.80;;;18.50;99.90;;;;;;5018054;28;20187;-83
2022/03/24 10:12:31;;;;;;;7.25;1.83;;;18.50;99.90;;;;;;5013878;28;20304;-86
2022/03/24 10:15:06;;;;;;;6.85;2.08;;;18.50;99.90;;;;;;5014615;28;20222;-84
2022/03/24 10:17:37;;;;;;;7.85;1.85;;;18.50;99.90;;;;;;5014850;28;20186;-84
2022/03/24 10:20:14;;;;;;;6.32;1.73;;;18.50;99.90;;;;;;5012713;28;20197;-83
2022/03/24 10:22:55;;;;;;;5.20;1.52;;;18.50;99.90;;;;;;5019910;28;20269;-85
2022/03/24 10:25:28;;;;;;;7.07;1.88;;;18.50;99.90;;;;;;5008512;28;20191;-85
2022/03/24 10:28:07;;;;;;;4.07;1.67;;;18.50;99.90;;;;;;5018068;28;20191;-82
2022/03/24 10:30:57;;;;;;;3.63;1.90;;;18.50;99.90;;;;;;5020843;28;20290;-85
2022/03/24 10:33:34;;;;;;;6.30;2.03;;;18.50;99.90;;;;;;5009743;28;20233;-86
2022/03/24 10:36:15;;;;;;;5.57;1.92;;;18.50;99.90;;;;;;5013886;28;20197;-83
2022/03/24 10:38:47;;;;;;;5.60;1.75;;;18.50;99.90;;;;;;5017609;28;20249;-87
2022/03/24 10:41:19;;;;;;;6.57;1.90;;;18.50;99.90;;;;;;5016984;28;20610;-86
2022/03/24 10:43:51;;;;;;;6.47;2.03;;;18.50;99.90;;;;;;5017498;28;20225;-86
2022/03/24 10:46:24;;;;;;;7.47;2.30;;;18.50;99.90;;;;;;5017114;28;20662;-86
2022/03/24 10:48:55;;;;;;;8.93;3.80;;;18.50;99.90;;;;;;5021878;28;20234;-87
2022/03/24 10:51:27;;;;;;;13.98;6.22;;;18.50;99.90;;;;;;5016174;28;20747;-86
2022/03/24 10:54:12;;;;;;;10.02;6.10;;;18.50;99.90;;;;;;5012883;28;20705;-86
2022/03/24 10:56:48;;;;;;;16.05;7.38;;;18.60;99.90;;;;;;5009625;28;20193;-87
2022/03/24 10:59:19;;;;;;;18.13;8.73;;;18.60;99.90;;;;;;5013656;28;20658;-86
2022/03/24 11:01:53;;;;;;;16.42;8.02;;;18.60;99.90;;;;;;5018573;28;20191;-87
2022/03/24 11:04:24;;;;;;;13.10;8.35;;;18.60;99.90;;;;;;5017891;28;20671;-88
2022/03/24 11:06:55;;;;;;;13.77;8.23;;;18.70;99.90;;;;;;5012928;28;20191;-91
2022/03/24 11:09:28;;;;;;;14.43;7.95;;;18.70;99.90;;;;;;5013188;28;20195;-88
2022/03/24 11:12:28;;;;;;;14.18;7.68;;;18.60;99.90;;;;;;5012829;28;20273;-91
2022/03/24 11:15:00;;;;;;;12.23;5.82;;;18.50;99.90;;;;;;5014521;28;20203;-88
2022/03/24 11:17:34;;;;;;;12.30;5.45;;;18.50;99.90;;;;;;5014754;28;20554;-87
2022/03/24 11:20:10;;;;;;;8.73;4.32;;;18.40;99.90;;;;;;5013575;28;20662;-87
2022/03/24 11:22:45;;;;;;;10.65;4.20;;;18.40;99.90;;;;;;5011108;28;20191;-85
2022/03/24 11:25:16;;;;;;;6.82;3.97;;;18.50;99.90;;;;;;5011925;28;20195;-85
2022/03/24 11:27:48;;;;;;;9.05;4.10;;;18.40;99.90;;;;;;5014467;28;20203;-85
2022/03/24 11:30:20;;;;;;;10.80;4.68;;;18.40;99.90;;;;;;5008927;28;20214;-77
2022/03/24 11:32:55;;;;;;;12.63;4.95;;;18.40;99.90;;;;;;5011273;28;20272;-85
2022/03/24 11:35:26;;;;;;;10.70;5.10;;;18.40;99.90;;;;;;5012465;28;20594;-84
2022/03/24 11:37:57;;;;;;;14.43;4.93;;;18.40;99.90;;;;;;5012811;28;20200;-85
2022/03/24 11:40:29;;;;;;;8.23;4.38;;;18.50;99.90;;;;;;5012672;28;20183;-84
2022/03/24 11:43:03;;;;;;;9.15;3.88;;;18.40;99.90;;;;;;5011865;28;20318;-83
2022/03/24 11:45:37;;;;;;;7.15;3.00;;;18.50;99.90;;;;;;5009505;28;20214;-83
2022/03/24 11:48:11;;;;;;;5.93;2.63;;;18.50;99.90;;;;;;5012978;28;20230;-83
2022/03/24 11:50:45;;;;;;;4.00;2.00;;;18.50;99.90;;;;;;5014226;28;20250;-84
2022/03/24 11:53:20;;;;;;;5.28;1.98;;;18.50;99.90;;;;;;5018602;28;20186;-83
2022/03/24 11:56:16;;;;;;;4.47;1.80;;;18.60;99.90;;;;;;5015101;28;20229;-84
2022/03/24 11:59:24;;;;;;;3.83;1.55;;;18.60;99.90;;;;;;5022506;28;20186;-85
2022/03/24 12:02:19;;;;;;;2.55;1.48;;;18.60;99.90;;;;;;5023183;28;20233;-86
2022/03/24 12:04:53;;;;;;;3.30;1.40;;;18.60;99.90;;;;;;5013183;28;20195;-84
2022/03/24 12:07:24;;;;;;;3.65;1.42;;;18.70;99.90;;;;;;5016283;28;20274;-79
2022/03/24 12:10:02;;;;;;;2.70;1.38;;;18.70;99.90;;;;;;5018826;28;20191;-83
2022/03/24 12:12:33;;;;;;;5.22;1.33;;;18.70;99.90;;;;;;5018196;28;20252;-83
2022/03/24 12:15:18;;;;;;;3.42;1.20;;;18.70;99.90;;;;;;5014515;28;20183;-84
2022/03/24 12:18:06;;;;;;;2.78;1.30;;;18.70;99.90;;;;;;5014884;28;20199;-76
2022/03/24 12:20:47;;;;;;;3.03;1.30;;;18.60;99.90;;;;;;5020142;28;20666;-79
2022/03/24 12:23:18;;;;;;;4.55;1.30;;;18.70;99.90;;;;;;5017766;28;20198;-84
2022/03/24 12:26:09;;;;;;;2.63;1.13;;;18.70;99.90;;;;;;5017865;28;20196;-86
2022/03/24 12:28:42;;;;;;;2.70;1.20;;;18.70;99.90;;;;;;5017950;28;20207;-84
2022/03/24 12:31:15;;;;;;;2.13;1.10;;;18.70;99.90;;;;;;5015935;28;20191;-85
2022/03/24 12:33:50;;;;;;;3.83;1.42;;;18.70;99.90;;;;;;5017269;28;20274;-85
2022/03/24 12:36:43;;;;;;;2.42;1.10;;;18.80;99.90;;;;;;5018542;28;20237;-83
2022/03/24 12:39:14;;;;;;;3.83;1.40;;;18.80;99.90;;;;;;5017077;28;20182;-87
2022/03/24 12:42:06;;;;;;;5.43;1.45;;;18.70;99.90;;;;;;5014960;28;20257;-87
2022/03/24 12:44:52;;;;;;;5.13;1.30;;;18.70;99.90;;;;;;5011564;28;20211;-81
2022/03/24 12:47:40;;;;;;;3.28;1.33;;;18.70;99.90;;;;;;5013553;28;20246;-88
2022/03/24 12:50:51;;;;;;;4.50;1.55;;;18.70;99.90;;;;;;5016893;28;20198;-82
2022/03/24 12:53:23;;;;;;;3.45;1.50;;;18.70;99.90;;;;;;5016469;28;20206;-81
2022/03/24 12:55:54;;;;;;;1.95;1.20;;;18.80;99.90;;;;;;5018495;28;20194;-88
2022/03/24 12:58:25;;;;;;;3.55;1.50;;;18.80;99.90;;;;;;5014826;28;20191;-89
2022/03/24 13:00:56;;;;;;;3.17;1.50;;;18.80;99.90;;;;;;5012857;28;20191;-89
2022/03/24 13:03:26;;;;;;;3.00;1.60;;;18.80;99.90;;;;;;5015309;28;20195;-88
2022/03/24 13:06:00;;;;;;;4.53;1.70;;;18.80;99.90;;;;;;5017377;28;20249;-90
2022/03/24 13:08:33;;;;;;;6.22;1.60;;;18.80;99.90;;;;;;5016628;28;20229;-88
2022/03/24 13:11:04;;;;;;;3.28;1.70;;;18.80;99.90;;;;;;5019502;28;20183;-89
2022/03/24 13:13:35;;;;;;;3.30;1.50;;;18.80;99.90;;;;;;5017661;28;20254;-85
2022/03/24 13:16:06;;;;;;;3.17;1.50;;;18.80;99.90;;;;;;5015837;28;20190;-82